Ronald, Washington
Current Conditions -  °F | °C
As of 3:53 AM on Monday 22 Dec 2014 (Local Time) from KELN Reporting Station
Few Clouds Few Clouds  
Wind Chill: 33°   Ceiling: Unl
Heat Index: 38°   Visibility: 10mi
Dew Point: 33°   Wind: 6mph
Humidity: 83%   Direction: 310°NW
Pressure: 30.1"   Gusts: NA
Location:  47.23°N, 121.01°W
Report Text: KELN 221153Z AUTO 31005KT 10SM FEW055 03/01 A3010 RMK AO2 SLP200 60000 70001 T00330006 10072 20028 53012
Loading
Personal Weather Stations






























Interactive Weather Map New forecast layout! Learn more

10-Day Weather Forecast

Advertisements
Track Severe Weather on mobile